Thunder radar more information blitzortung!


Radar de pluja more information rain snow radar


Visita la nostra xarxa de llocs de meteo:

Template documentation
and downloads

And another site



No particular awareness of the weather is required.    There are no Weather-warnings

Pagina Historial Weather Underground text

Diari Resum May 10, 2016 Unitats:  Mètric    Imperial   Tant
« Previous Dia
SegĂźent Dia »
Diari Setmana Mensual Anual Personalitzada
  Maxima: Minima: Media:
Temperatura: -17.8 °C -12 °C -9.3 °C
Punt de rosada: -17.8 °C -12.7 °C -11.3 °C
Humitat: Humidity % 61 % 79 %
Wind Speed: 0 km/h 0 km/h 6.8 km/h
RĂ fegues de vent: 0 km/h - -
Vent:- - ESE
Pression baro: 0 hPa 34097 hPa -
Precipitacions: 109.22 mm    
Historical Graphs
 
 
Dades de taula per May 10, 2016
Temps Temperatura Punt de rosada Pression baro Vent Wind Speed RĂ fegues de vent Humitat Rainfall Rate (Hourly)
-17.8 °C -17.8 °C 0 hPa Calm     Humidity % 0 mm
00:00 -10.4 °C -11.5 °C 34256.2 hPa Calm     88 % 104.14 mm
00:05 -10.5 °C -11.5 °C 34256.2 hPa NE 6.8 km/h 6.8 km/h 89 % 104.14 mm
00:10 -10.6 °C -11.6 °C 34198.6 hPa NNE 6 km/h 6 km/h 89 % 104.14 mm
05:35 -10.2 °C -11.3 °C 34256.2 hPa NE 5.1 km/h 5.1 km/h 88 % 0 mm
10:41 -10.2 °C -11.3 °C 34222.3 hPa NE 11.9 km/h 11.9 km/h 88 % 0 mm
10:46 -10.1 °C -11.2 °C 34222.3 hPa NNE 9.3 km/h 9.3 km/h 88 % 0 mm
10:51 -10.1 °C -11.2 °C 34222.3 hPa ENE 6 km/h 6 km/h 87 % 0 mm
10:56 -9.9 °C -11.2 °C 34256.2 hPa East 9 km/h 9 km/h 87 % 0 mm
11:01 -9.9 °C -11.2 °C 34256.2 hPa NE 9 km/h 9 km/h 86 % 0 mm
11:06 -9.7 °C -11 °C 34256.2 hPa ENE 6 km/h   86 % 0 mm
11:11 -9.8 °C -11.2 °C 34256.2 hPa NNE 4.2 km/h 5.1 km/h 85 % 0 mm
11:16 -9.6 °C -11 °C 34256.2 hPa ENE 6 km/h 6.8 km/h 85 % 0 mm
11:21 -9.7 °C -11.2 °C 34256.2 hPa ENE 9 km/h 9 km/h 84 % 0 mm
11:26 -9.6 °C -11.1 °C 34256.2 hPa ENE 6 km/h 6 km/h 84 % 0 mm
11:31 -9.4 °C -11.1 °C 34256.2 hPa NNE 9 km/h 9 km/h 83 % 0 mm
11:36 -9.1 °C -10.7 °C 34256.2 hPa ENE 11.1 km/h 11.1 km/h 83 % 0 mm
11:41 -8.9 °C -10.7 °C 34222.3 hPa North 9 km/h 9 km/h 82 % 0 mm
11:46 -8.8 °C -10.5 °C 34222.3 hPa NNE 9.3 km/h 9.3 km/h 82 % 0 mm
11:51 -8.6 °C -10.4 °C 34222.3 hPa North 9.3 km/h 9.3 km/h 81 % 0 mm
11:56 -8.3 °C -10.4 °C 34256.2 hPa ENE 9 km/h 9 km/h 79 % 0 mm
12:01 -8.3 °C -10.5 °C 34256.2 hPa ENE 12.7 km/h 12.7 km/h 77 % 0 mm
12:06 -8.3 °C -10.5 °C 34256.2 hPa West 15 km/h 15 km/h 77 % 0 mm
12:11 -8.3 °C -10.5 °C 34222.3 hPa NNE 10.3 km/h 10.3 km/h 77 % 0 mm
12:16 -8.2 °C -10.6 °C 34222.3 hPa ENE 15 km/h 15 km/h 76 % 0 mm
12:21 -8.3 °C -10.8 °C 34222.3 hPa NE 11.9 km/h 11.9 km/h 75 % 0 mm
12:26 -8.1 °C -10.6 °C 34222.3 hPa ENE 6 km/h 6 km/h 75 % 0 mm
12:31 -8 °C -10.5 °C 34222.3 hPa ENE 9.8 km/h 9.8 km/h 75 % 0 mm
12:36 -8 °C -10.5 °C 34222.3 hPa WNW 5.1 km/h   75 % 0 mm
12:41 -7.9 °C -10.4 °C 34222.3 hPa WSW 7.6 km/h 7.6 km/h 75 % 0 mm
12:46 -7.7 °C -10.6 °C 34222.3 hPa Calm     72 % 0 mm
12:51 -7.4 °C -10.1 °C 34222.3 hPa WSW 6 km/h 6 km/h 74 % 0 mm
12:56 -7.1 °C -10.1 °C 34222.3 hPa ESE 9 km/h 9 km/h 71 % 0 mm
13:01 -6.9 °C -10.2 °C 34222.3 hPa SW 6 km/h 6 km/h 69 % 0 mm
13:06 -6.9 °C -10.6 °C 34222.3 hPa ESE 15.3 km/h 15.3 km/h 66 % 0 mm
13:11 -7.1 °C -11 °C 34222.3 hPa SSW 9 km/h 9 km/h 64 % 0 mm
13:16 -7.1 °C -10.8 °C 34222.3 hPa ESE 11.9 km/h 11.9 km/h 65 % 0 mm
13:21 -7 °C -10.7 °C 34222.3 hPa NE 11.9 km/h 11.9 km/h 65 % 0 mm
13:26 -7.1 °C -10.8 °C 34198.6 hPa ENE 15 km/h 15 km/h 65 % 0 mm
13:31 -7.1 °C -10.7 °C 34198.6 hPa ESE 11.9 km/h 11.9 km/h 66 % 0 mm
13:36 -7.1 °C -10.9 °C 34198.6 hPa NE 9 km/h 9 km/h 65 % 0 mm
13:41 -7.2 °C -11.1 °C 34222.3 hPa ENE 11.9 km/h 11.9 km/h 64 % 0 mm
13:51 -7.2 °C -11.2 °C 34222.3 hPa ESE 9.3 km/h 9.3 km/h 63 % 0 mm
13:56 -7.2 °C -11.2 °C 34222.3 hPa ENE 9 km/h 9 km/h 63 % 0 mm
14:01 -7.2 °C -11.3 °C 34222.3 hPa ENE 9 km/h 9.8 km/h 62 % 0 mm
14:06 -7.2 °C -11.2 °C 34222.3 hPa ENE 6.3 km/h 6.3 km/h 63 % 0 mm
14:11 -7.2 °C -11.2 °C 34198.6 hPa East 9 km/h 9 km/h 63 % 0 mm
14:16 -7.2 °C -11.3 °C 34198.6 hPa ESE 9 km/h 9 km/h 62 % 0 mm
14:21 -7.1 °C -11.3 °C 34198.6 hPa ENE 9 km/h 9 km/h 62 % 0 mm
14:26 -7.1 °C -11.4 °C 34198.6 hPa NNE 3.1 km/h   61 % 0 mm
14:31 -7 °C -11.3 °C 34198.6 hPa Calm     61 % 0 mm
14:36 -6.9 °C -11.2 °C 34198.6 hPa East 6.3 km/h 6.3 km/h 61 % 0 mm
14:41 -6.9 °C -11.2 °C 34198.6 hPa Calm     61 % 0 mm
14:46 -6.8 °C -10.9 °C 34198.6 hPa NNW 3.7 km/h   62 % 0 mm
14:51 -6.9 °C -11.1 °C 34198.6 hPa ENE 9 km/h 9 km/h 62 % 0 mm
14:56 -7.1 °C -11.1 °C 34198.6 hPa NNE 3.1 km/h 3.1 km/h 63 % 0 mm
15:01 -7.1 °C -11 °C 34198.6 hPa NW 6.3 km/h 6.3 km/h 64 % 0 mm
15:06 -7.2 °C -11.1 °C 34198.6 hPa ENE 6 km/h 6 km/h 64 % 0 mm
15:11 -7.3 °C -11.2 °C 34164.7 hPa NNE 3.1 km/h 3.1 km/h 64 % 0 mm
15:16 -7.3 °C -10.9 °C 34164.7 hPa NNW 3.1 km/h 3.1 km/h 66 % 0 mm
15:21 -7.4 °C -10.9 °C 34164.7 hPa NNW 3.1 km/h   67 % 0 mm
15:26 -7.4 °C -10.7 °C 34198.6 hPa WSW 6.3 km/h 6.3 km/h 69 % 0 mm
15:31 -7.6 °C -10.8 °C 34198.6 hPa WSW 3.7 km/h   69 % 0 mm
15:36 -7.5 °C -10.7 °C 34198.6 hPa WSW 6 km/h 6 km/h 69 % 0 mm
15:41 -7.6 °C -11 °C 34198.6 hPa WSW 15 km/h 15 km/h 67 % 0 mm
15:46 -7.6 °C -10.9 °C 34198.6 hPa West 6 km/h 6 km/h 68 % 0 mm
15:51 -7.7 °C -11.1 °C 34198.6 hPa West 9 km/h 9 km/h 68 % 0 mm
15:56 -7.8 °C -10.9 °C 34198.6 hPa West 8.5 km/h   70 % 0 mm
16:01 -7.8 °C -10.9 °C 34198.6 hPa SW 6 km/h 6 km/h 70 % 0 mm
16:06 -7.8 °C -10.8 °C 34198.6 hPa SW 3.1 km/h   71 % 0 mm
16:11 -7.8 °C -10.6 °C 34198.6 hPa Calm     73 % 0 mm
16:16 -7.8 °C -10.7 °C 34198.6 hPa Calm     72 % 0 mm
16:21 -7.8 °C -10.7 °C 34198.6 hPa Calm     72 % 0 mm
16:26 -7.7 °C -10.3 °C 34198.6 hPa Calm     74 % 0 mm
16:36 -7.7 °C -10.3 °C 34198.6 hPa SE 3.7 km/h   74 % 0 mm
16:41 -7.6 °C -10.3 °C 34198.6 hPa NE 6.8 km/h   73 % 0 mm
16:46 -7.7 °C -10.7 °C 34198.6 hPa NE 6 km/h 6 km/h 71 % 0 mm
16:51 -7.8 °C -10.6 °C 34198.6 hPa NE 9 km/h 9 km/h 72 % 0 mm
16:56 -7.8 °C -10.4 °C 34198.6 hPa NE 11.9 km/h 11.9 km/h 74 % 0 mm
17:01 -7.8 °C -10.5 °C 34198.6 hPa NNE 9.3 km/h 9.3 km/h 73 % 0 mm
17:06 -7.8 °C -10.6 °C 34198.6 hPa NE 10.3 km/h 10.3 km/h 73 % 0 mm
17:11 -7.8 °C -10.7 °C 34164.7 hPa ENE 11.9 km/h 11.9 km/h 72 % 0 mm
17:16 -7.9 °C -10.7 °C 34164.7 hPa ENE 8 km/h 8 km/h 72 % 0 mm
17:21 -7.9 °C -10.9 °C 34164.7 hPa NE 11.9 km/h 11.9 km/h 71 % 0 mm
17:26 -8 °C -10.9 °C 34164.7 hPa NE 15 km/h 15 km/h 71 % 0 mm
17:31 -8 °C -10.8 °C 34164.7 hPa NNE 11.9 km/h 11.9 km/h 72 % 0 mm
17:36 -8.1 °C -10.9 °C 34164.7 hPa ENE 11.9 km/h 11.9 km/h 72 % 0 mm
17:41 -8.2 °C -11.1 °C 34130.9 hPa NNE 20.9 km/h 20.9 km/h 72 % 0 mm
17:46 -8.3 °C -11.1 °C 34130.9 hPa NNE 9 km/h 9 km/h 72 % 0 mm
17:51 -8.3 °C -11.1 °C 34130.9 hPa WNW 6 km/h 6 km/h 72 % 0 mm
17:56 -8.4 °C -10.9 °C 34198.6 hPa SW 6 km/h 6 km/h 75 % 0 mm
18:01 -8.4 °C -10.7 °C 34198.6 hPa SW 6 km/h 6 km/h 76 % 0 mm
18:06 -8.6 °C -10.9 °C 34198.6 hPa NNE 5.1 km/h   76 % 0 mm
18:11 -8.6 °C -10.9 °C 34198.6 hPa NE 11.9 km/h 11.9 km/h 77 % 0 mm
18:16 -8.7 °C -10.9 °C 34198.6 hPa NNE 15 km/h 15 km/h 77 % 0 mm
18:21 -8.7 °C -10.9 °C 34198.6 hPa NNE 15 km/h 15 km/h 77 % 0 mm
18:26 -8.7 °C -10.9 °C 34130.9 hPa NNE 11.1 km/h 11.1 km/h 77 % 0 mm
18:31 -8.9 °C -11.2 °C 34130.9 hPa NNE 11.9 km/h 11.9 km/h 77 % 0 mm
18:36 -8.9 °C -11.2 °C 34130.9 hPa North 11.9 km/h 11.9 km/h 77 % 0 mm
18:41 -8.9 °C -11.2 °C 34130.9 hPa ENE 20.9 km/h 20.9 km/h 77 % 0 mm
18:46 -9 °C -11.2 °C 34130.9 hPa ESE 9 km/h 9 km/h 77 % 0 mm
18:51 -9 °C -11.2 °C 34130.9 hPa NE 9 km/h 9 km/h 77 % 0 mm
18:56 -9 °C -11.6 °C 34130.9 hPa ENE 17.9 km/h 17.9 km/h 74 % 0 mm
19:01 -9 °C -11.6 °C 34130.9 hPa East 8 km/h 8 km/h 74 % 0 mm
19:06 -9 °C -11.6 °C 34130.9 hPa NNE 11.9 km/h 11.9 km/h 74 % 0 mm
19:11 -9.1 °C -11.6 °C 34164.7 hPa ENE 17.9 km/h 17.9 km/h 74 % 0 mm
19:15 -10.7 °C -11.6 °C 34198.6 hPa ENE 5.1 km/h 5.1 km/h 90 % 0 mm
19:16 -9.1 °C -11.7 °C 34164.7 hPa NE 15 km/h 15 km/h 73 % 0 mm
19:21 -9.1 °C -11.8 °C 34164.7 hPa ENE 9 km/h 9 km/h 73 % 0 mm
19:25 -10.7 °C -11.6 °C 34164.7 hPa Calm   7.7 km/h 90 % 0 mm
19:26 -9.1 °C -11.8 °C 34130.9 hPa NNE 11.9 km/h 11.9 km/h 73 % 0 mm
19:31 -9.1 °C -11.8 °C 34130.9 hPa NNE 9 km/h 9 km/h 73 % 0 mm
19:35 -10.7 °C -11.5 °C 34164.7 hPa West 2.6 km/h 5.1 km/h 91 % 0 mm
19:37 -9.2 °C -11.8 °C 34130.9 hPa NNW 6 km/h 6 km/h 73 % 0 mm
19:42 -9.2 °C -11.7 °C 34130.9 hPa WNW 3.1 km/h 3.1 km/h 75 % 0 mm
19:45 -10.8 °C -11.6 °C 34097 hPa Calm   7.7 km/h 91 % 0 mm
19:47 -9.3 °C -11.6 °C 34130.9 hPa Calm     76 % 0 mm
19:52 -9.4 °C -11.6 °C 34130.9 hPa Calm     77 % 0 mm
19:55 -10.9 °C -11.7 °C 34164.7 hPa Calm     91 % 0 mm
19:57 -9.4 °C -11.7 °C 34130.9 hPa Calm     77 % 0 mm
20:02 -9.6 °C -11.7 °C 34130.9 hPa SW 6 km/h   78 % 0 mm
20:05 -10.9 °C -11.7 °C 34164.7 hPa Calm     91 % 0 mm
20:07 -9.7 °C -11.7 °C 34130.9 hPa SW 3.1 km/h   79 % 0 mm
20:12 -9.7 °C -11.7 °C 34164.7 hPa ENE 6 km/h 6 km/h 79 % 0 mm
20:15 -11 °C -11.8 °C 34164.7 hPa SW 2.6 km/h 5.1 km/h 91 % 0 mm
20:17 -9.8 °C -11.7 °C 34164.7 hPa ENE 6 km/h 6 km/h 80 % 0 mm
20:22 -9.8 °C -11.7 °C 34164.7 hPa East 6.8 km/h 6.8 km/h 80 % 0 mm
20:25 -11.1 °C -11.9 °C 34164.7 hPa SW 5.1 km/h 5.1 km/h 90 % 0 mm
20:27 -9.8 °C -11.7 °C 34164.7 hPa NE 6.8 km/h 6.8 km/h 80 % 0 mm
20:32 -9.8 °C -11.6 °C 34164.7 hPa NE 3.7 km/h 3.7 km/h 81 % 0 mm
20:35 -11 °C -11.8 °C 34164.7 hPa Calm   5.1 km/h 91 % 0 mm
20:37 -9.8 °C -11.6 °C 34164.7 hPa Calm     81 % 0 mm
20:42 -9.8 °C -11.6 °C 34164.7 hPa ESE 3.1 km/h 3.1 km/h 81 % 0 mm
20:45 -11.1 °C -11.8 °C 34130.9 hPa Calm     92 % 0 mm
20:47 -9.9 °C -11.8 °C 34164.7 hPa SW 7.6 km/h 7.6 km/h 80 % 0 mm
20:52 -10 °C -11.6 °C 34164.7 hPa SW 9 km/h 9 km/h 83 % 0 mm
20:55 -11.1 °C -11.8 °C 34130.9 hPa Calm     92 % 0 mm
20:57 -10.1 °C -11.4 °C 34198.6 hPa SW 15 km/h 15 km/h 85 % 25.4 mm
21:02 -10.1 °C -11.4 °C 34198.6 hPa SSW 15 km/h 15 km/h 86 % 25.4 mm
21:05 -11.1 °C -11.7 °C 34130.9 hPa Calm     93 % 0 mm
21:07 -10.1 °C -11.4 °C 34198.6 hPa SW 6.3 km/h 6.3 km/h 86 % 58.42 mm
21:12 -10.1 °C -11.4 °C 34198.6 hPa SW 6.3 km/h 6.3 km/h 86 % 58.42 mm
21:15 -11.2 °C -11.8 °C 34130.9 hPa Calm   2.6 km/h 93 % 0 mm
21:17 -10.1 °C -11.4 °C 34198.6 hPa WSW 6 km/h 6 km/h 86 % 83.82 mm
21:22 -10.1 °C -11.4 °C 34198.6 hPa ENE 9 km/h 9 km/h 86 % 109.22 mm
21:25 -11.3 °C -11.9 °C 34164.7 hPa Calm     93 % 0 mm
21:27 -10.1 °C -11.4 °C 34164.7 hPa NNE 20.9 km/h 20.9 km/h 86 % 109.22 mm
21:32 -10.1 °C -11.4 °C 34164.7 hPa NE 11.1 km/h 11.1 km/h 86 % 109.22 mm
21:35 -11.3 °C -11.9 °C 34164.7 hPa Calm     93 % 0 mm
21:37 -10.1 °C -11.4 °C 34164.7 hPa NNE 15 km/h 15 km/h 86 % 109.22 mm
21:42 -10.6 °C -11.6 °C 34130.9 hPa ENE 20.9 km/h 20.9 km/h 89 % 109.22 mm
21:45 -11.6 °C -12.3 °C 34130.9 hPa NE 2.6 km/h 5.1 km/h 91 % 0 mm
21:47 -10.6 °C -11.6 °C 34130.9 hPa ENE 8 km/h 8 km/h 89 % 109.22 mm
21:52 -10.6 °C -11.6 °C 34130.9 hPa NNE 9 km/h 9 km/h 89 % 109.22 mm
21:55 -11.6 °C -12.4 °C 34097 hPa SW 2.6 km/h 5.1 km/h 91 % 0 mm
21:57 -10.6 °C -11.6 °C 34130.9 hPa ENE 6 km/h 6 km/h 89 % 83.82 mm
22:03 -10.6 °C -11.6 °C 34130.9 hPa NE 9 km/h 9 km/h 89 % 83.82 mm
22:05 -11.6 °C -12.4 °C 34097 hPa SW 2.6 km/h 5.1 km/h 91 % 0 mm
22:08 -10.6 °C -11.6 °C 34130.9 hPa Calm     89 % 50.8 mm
22:13 -10.6 °C -11.4 °C 34130.9 hPa NNE 6.8 km/h 6.8 km/h 90 % 50.8 mm
22:15 -11.7 °C -12.4 °C 34097 hPa SW 2.6 km/h 5.1 km/h 91 % 0 mm
22:18 -10.6 °C -11.6 °C 34130.9 hPa NNE 11.9 km/h 11.9 km/h 89 % 25.4 mm
22:25 -11.7 °C -12.4 °C 34097 hPa SW 5.1 km/h 5.1 km/h 91 % 0 mm
22:28 -10.5 °C -11.5 °C 34130.9 hPa NE 11.9 km/h 11.9 km/h 89 % 0 mm
22:33 -10.6 °C -11.6 °C 34130.9 hPa WNW 6 km/h   89 % 0 mm
22:35 -11.7 °C -12.4 °C 34097 hPa WSW 2.6 km/h 5.1 km/h 91 % 0 mm
22:38 -10.6 °C -11.6 °C 34164.7 hPa WNW 3.1 km/h   89 % 0 mm
22:43 -10.6 °C -11.6 °C 34164.7 hPa Calm     89 % 0 mm
22:45 -11.8 °C -12.4 °C 34097 hPa Calm   7.7 km/h 92 % 0 mm
22:48 -10.6 °C -11.6 °C 34164.7 hPa West 6 km/h 6 km/h 89 % 0 mm
22:53 -10.6 °C -11.6 °C 34198.6 hPa WSW 9.8 km/h 9.8 km/h 88 % 0 mm
22:55 -11.9 °C -12.6 °C 34097 hPa Calm     92 % 0 mm
22:59 -10.6 °C -11.6 °C 34198.6 hPa WSW 6 km/h 6 km/h 89 % 0 mm
23:04 -10.6 °C -11.6 °C 34198.6 hPa SW 6 km/h 6 km/h 89 % 0 mm
23:05 -11.8 °C -12.6 °C 34097 hPa SW 2.6 km/h 7.7 km/h 92 % 0 mm
23:14 -10.7 °C -11.6 °C 34198.6 hPa SSW 3.1 km/h   90 % 0 mm
23:15 -11.9 °C -12.6 °C 34097 hPa Calm   5.1 km/h 92 % 0 mm
23:24 -10.6 °C -11.4 °C 34198.6 hPa ESE 6 km/h 6 km/h 91 % 0 mm
23:25 -12 °C -12.7 °C 34097 hPa SW 2.6 km/h 7.7 km/h 92 % 0 mm
23:29 -10.6 °C -11.4 °C 34198.6 hPa Calm     91 % 0 mm
23:34 -10.7 °C -11.4 °C 34198.6 hPa Calm     91 % 0 mm
23:35 -12 °C -12.7 °C 34097 hPa WSW 2.6 km/h 5.1 km/h 92 % 0 mm
23:39 -10.6 °C -11.4 °C 34198.6 hPa ENE 3.1 km/h 3.1 km/h 91 % 0 mm
23:44 -10.6 °C -11.3 °C 34198.6 hPa ENE 3.1 km/h   92 % 0 mm
23:45 -11.9 °C -12.6 °C 34097 hPa West 2.6 km/h 7.7 km/h 92 % 0 mm
23:49 -10.6 °C -11.3 °C 34198.6 hPa Calm     92 % 0 mm
23:54 -10.7 °C -11.3 °C 34164.7 hPa Calm     92 % 0 mm
23:55 -11.9 °C -12.6 °C 34097 hPa Calm     93 % 0 mm
23:59 -10.7 °C -11.3 °C 34164.7 hPa Calm     92 % 0 mm
Meteo Sesrovires
Elogis d' Weather Underground - 3.5 mb

Guio original per  Jim McMurry - jmcmurry@mwt.net Adaptat per a la plantilla per  Wim van der Kuil - Leuven-Template.eu

Trobareu la nostra informacio del temps tambe a:

Weather Underground

AWEKAS